Time,TemperatureF,DewpointF,PressureIn,WindDirection,WindDirectionDegrees,WindSpeedMPH,WindSpeedGustMPH,Humidity,HourlyPrecipIn,Conditions,Clouds,dailyrainin,SoftwareType,DateUTC
2013-03-25 00:00:00,42.1,33.4,29.74,SSW,194,1.0,11.0,71,0.00,,---,1.17,VWS V14.01,2013-03-25 04:00:00,
2013-03-25 00:05:00,41.9,33.2,29.74,ENE,61,10.0,11.0,71,0.00,,---,1.17,VWS V14.01,2013-03-25 04:05:00,
2013-03-25 00:10:00,41.7,32.7,29.74,NE,44,2.0,10.0,70,0.00,,---,0.00,VWS V14.01,2013-03-25 04:10:00,
2013-03-25 00:15:00,41.4,32.4,29.75,ENE,68,6.0,10.0,70,0.00,,---,0.00,VWS V14.01,2013-03-25 04:15:00,
2013-03-25 00:20:00,41.2,32.5,29.75,East,92,3.0,11.0,71,0.00,,---,0.00,VWS V14.01,2013-03-25 04:20:00,
2013-03-25 00:25:00,41.1,32.1,29.75,NE,56,4.0,11.0,70,0.00,,---,0.00,VWS V14.01,2013-03-25 04:25:00,
2013-03-25 00:30:00,41.0,32.0,29.75,East,86,3.0,11.0,70,0.00,,---,0.00,VWS V14.01,2013-03-25 04:30:00,
2013-03-25 00:35:00,40.9,32.2,29.75,ENE,65,2.0,15.0,71,0.00,,---,0.00,VWS V14.01,2013-03-25 04:35:00,
2013-03-25 00:40:00,40.9,32.2,29.76,East,96,2.0,6.0,71,0.00,,---,0.00,VWS V14.01,2013-03-25 04:40:00,
2013-03-25 00:45:00,40.8,31.4,29.76,ESE,106,4.0,7.0,69,0.00,,---,0.00,VWS V14.01,2013-03-25 04:45:00,
2013-03-25 00:50:00,40.7,31.7,29.77,ESE,102,3.0,7.0,70,0.00,,---,0.00,VWS V14.01,2013-03-25 04:50:00,
2013-03-25 00:55:00,40.5,30.4,29.77,ESE,107,4.0,7.0,67,0.00,,---,0.00,VWS V14.01,2013-03-25 04:55:00,
2013-03-25 01:00:00,40.3,30.2,29.77,East,93,3.0,7.0,67,0.00,,---,0.00,VWS V14.01,2013-03-25 05:00:00,
2013-03-25 01:05:00,40.2,30.5,29.77,ESE,114,1.0,7.0,68,0.00,,---,0.00,VWS V14.01,2013-03-25 05:05:00,
2013-03-25 01:10:00,40.1,30.0,29.77,SW,217,2.0,9.0,67,0.00,,---,0.00,VWS V14.01,2013-03-25 05:10:00,
2013-03-25 01:15:00,40.0,30.3,29.77,NE,36,3.0,9.0,68,0.00,,---,0.00,VWS V14.01,2013-03-25 05:15:00,
2013-03-25 01:20:00,39.8,30.1,29.77,East,88,2.0,10.0,68,0.00,,---,0.00,VWS V14.01,2013-03-25 05:20:00,
2013-03-25 01:25:00,39.7,30.0,29.77,East,98,7.0,10.0,68,0.00,,---,0.00,VWS V14.01,2013-03-25 05:25:00,
2013-03-25 01:30:00,39.7,30.0,29.77,NE,55,3.0,10.0,68,0.00,,---,0.00,VWS V14.01,2013-03-25 05:30:00,
2013-03-25 01:35:00,39.6,29.2,29.77,ENE,73,3.0,10.0,66,0.00,,---,0.00,VWS V14.01,2013-03-25 05:35:00,
2013-03-25 01:40:00,39.5,29.5,29.77,NE,51,1.0,13.0,67,0.00,,---,0.00,VWS V14.01,2013-03-25 05:40:00,
2013-03-25 01:45:00,39.4,29.0,29.78,East,88,6.0,13.0,66,0.00,,---,0.00,VWS V14.01,2013-03-25 05:45:00,
2013-03-25 01:50:00,39.3,28.9,29.78,ESE,102,3.0,13.0,66,0.00,,---,0.00,VWS V14.01,2013-03-25 05:50:00,
2013-03-25 01:55:00,39.3,28.9,29.78,ENE,71,3.0,13.0,66,0.00,,---,0.00,VWS V14.01,2013-03-25 05:55:00,
2013-03-25 02:00:00,39.2,28.8,29.79,ESE,107,4.0,13.0,66,0.00,,---,0.00,VWS V14.01,2013-03-25 06:00:00,
2013-03-25 02:05:00,39.1,28.7,29.79,ENE,68,3.0,13.0,66,0.00,,---,0.00,VWS V14.01,2013-03-25 06:05:00,
2013-03-25 02:10:00,39.0,28.6,29.78,ENE,73,3.0,9.0,66,0.00,,---,0.00,VWS V14.01,2013-03-25 06:10:00,
2013-03-25 02:15:00,38.9,28.1,29.79,ENE,63,4.0,9.0,65,0.00,,---,0.00,VWS V14.01,2013-03-25 06:15:00,
2013-03-25 02:20:00,38.8,28.1,29.79,ENE,61,2.0,14.0,65,0.00,,---,0.00,VWS V14.01,2013-03-25 06:20:00,
2013-03-25 02:25:00,38.7,28.0,29.79,ENE,71,4.0,14.0,65,0.00,,---,0.00,VWS V14.01,2013-03-25 06:25:00,
2013-03-25 02:30:00,38.6,27.9,29.79,East,92,6.0,14.0,65,0.00,,---,0.00,VWS V14.01,2013-03-25 06:30:00,
2013-03-25 02:35:00,38.4,27.7,29.79,ENE,71,4.0,14.0,65,0.00,,---,0.00,VWS V14.01,2013-03-25 06:35:00,
2013-03-25 02:40:00,38.3,26.8,29.79,ENE,70,6.0,10.0,63,0.00,,---,0.00,VWS V14.01,2013-03-25 06:40:00,
2013-03-25 02:45:00,38.3,26.8,29.80,East,100,3.0,10.0,63,0.00,,---,0.00,VWS V14.01,2013-03-25 06:45:00,
2013-03-25 02:50:00,38.2,26.7,29.80,NE,49,2.0,10.0,63,0.00,,---,0.00,VWS V14.01,2013-03-25 06:50:00,
2013-03-25 02:55:00,38.1,26.6,29.80,SE,129,3.0,11.0,63,0.00,,---,0.00,VWS V14.01,2013-03-25 06:55:00,
2013-03-25 03:00:00,38.0,26.5,29.80,ENE,67,2.0,11.0,63,0.00,,---,0.00,VWS V14.01,2013-03-25 07:00:00,
2013-03-25 03:05:00,37.9,27.2,29.80,ENE,64,2.0,11.0,65,0.00,,---,0.00,VWS V14.01,2013-03-25 07:05:00,
2013-03-25 03:10:00,37.9,27.2,29.80,NE,38,2.0,5.0,65,0.00,,---,0.00,VWS V14.01,2013-03-25 07:10:00,
2013-03-25 03:15:00,37.8,27.1,29.80,NNE,15,2.0,6.0,65,0.00,,---,0.00,VWS V14.01,2013-03-25 07:15:00,
2013-03-25 03:20:00,37.8,26.7,29.80,NNE,24,4.0,6.0,64,0.00,,---,0.00,VWS V14.01,2013-03-25 07:20:00,
2013-03-25 03:25:00,37.8,26.7,29.79,ENE,73,1.0,6.0,64,0.00,,---,0.00,VWS V14.01,2013-03-25 07:25:00,
2013-03-25 03:29:00,37.7,27.0,29.80,NNE,21,4.0,6.0,65,0.00,,---,0.00,VWS V14.01,2013-03-25 07:29:00,
2013-03-25 03:34:00,37.6,26.2,29.80,NE,52,1.0,14.0,63,0.00,,---,0.00,VWS V14.01,2013-03-25 07:34:00,
2013-03-25 03:39:00,37.6,26.9,29.80,ESE,114,10.0,10.0,65,0.00,,---,0.00,VWS V14.01,2013-03-25 07:39:00,
2013-03-25 03:44:00,37.5,26.8,29.79,NE,40,2.0,10.0,65,0.00,,---,0.00,VWS V14.01,2013-03-25 07:44:00,
2013-03-25 03:49:00,37.4,26.0,29.80,East,96,2.0,10.0,63,0.00,,---,0.00,VWS V14.01,2013-03-25 07:49:00,
2013-03-25 03:54:00,37.3,26.6,29.80,North,9,1.0,10.0,65,0.00,,---,0.00,VWS V14.01,2013-03-25 07:54:00,
2013-03-25 03:59:00,37.2,26.2,29.80,SE,133,2.0,10.0,64,0.00,,---,0.00,VWS V14.01,2013-03-25 07:59:00,
2013-03-25 04:04:00,37.1,26.4,29.80,ENE,59,4.0,10.0,65,0.00,,---,0.00,VWS V14.01,2013-03-25 08:04:00,
2013-03-25 04:09:00,37.0,26.0,29.81,ESE,112,3.0,5.0,64,0.00,,---,0.00,VWS V14.01,2013-03-25 08:09:00,
2013-03-25 04:14:00,36.8,25.8,29.81,East,101,2.0,9.0,64,0.00,,---,0.00,VWS V14.01,2013-03-25 08:14:00,
2013-03-25 04:19:00,36.7,25.7,29.81,SSE,150,5.0,17.0,64,0.00,,---,0.00,VWS V14.01,2013-03-25 08:19:00,
2013-03-25 04:24:00,36.6,25.2,29.81,ESE,107,1.0,17.0,63,0.00,,---,0.00,VWS V14.01,2013-03-25 08:24:00,
2013-03-25 04:29:00,36.6,26.0,29.81,ENE,64,1.0,17.0,65,0.00,,---,0.00,VWS V14.01,2013-03-25 08:29:00,
2013-03-25 04:34:00,36.5,25.9,29.81,East,90,3.0,17.0,65,0.00,,---,0.00,VWS V14.01,2013-03-25 08:34:00,
2013-03-25 04:39:00,36.5,25.9,29.81,NNW,345,4.0,7.0,65,0.00,,---,0.00,VWS V14.01,2013-03-25 08:39:00,
2013-03-25 04:44:00,36.5,25.5,29.81,ENE,78,1.0,10.0,64,0.00,,---,0.00,VWS V14.01,2013-03-25 08:44:00,
2013-03-25 04:49:00,36.5,25.5,29.81,East,92,5.0,10.0,64,0.00,,---,0.00,VWS V14.01,2013-03-25 08:49:00,
2013-03-25 04:54:00,36.4,26.1,29.81,ENE,75,1.0,10.0,66,0.00,,---,0.00,VWS V14.01,2013-03-25 08:54:00,
2013-03-25 04:59:00,36.4,26.1,29.81,ESE,103,10.0,11.0,66,0.00,,---,0.00,VWS V14.01,2013-03-25 08:59:00,
2013-03-25 05:04:00,36.4,26.1,29.82,NE,55,2.0,11.0,66,0.00,,---,0.00,VWS V14.01,2013-03-25 09:04:00,
2013-03-25 05:09:00,36.4,26.1,29.82,NE,37,3.0,8.0,66,0.00,,---,0.00,VWS V14.01,2013-03-25 09:09:00,
2013-03-25 05:14:00,36.4,26.9,29.82,East,86,3.0,8.0,68,0.00,,---,0.00,VWS V14.01,2013-03-25 09:14:00,
2013-03-25 05:19:00,36.3,26.4,29.82,NNE,32,2.0,8.0,67,0.00,,---,0.00,VWS V14.01,2013-03-25 09:19:00,
2013-03-25 05:24:00,36.3,27.1,29.82,ENE,65,6.0,8.0,69,0.00,,---,0.00,VWS V14.01,2013-03-25 09:24:00,
2013-03-25 05:29:00,36.2,27.0,29.82,North,355,1.0,8.0,69,0.00,,---,0.00,VWS V14.01,2013-03-25 09:29:00,
2013-03-25 05:34:00,36.2,27.0,29.83,East,95,1.0,8.0,69,0.00,,---,0.00,VWS V14.01,2013-03-25 09:34:00,
2013-03-25 05:39:00,36.1,26.9,29.82,ESE,102,2.0,9.0,69,0.00,,---,0.00,VWS V14.01,2013-03-25 09:39:00,
2013-03-25 05:44:00,36.1,27.3,29.82,NNE,32,3.0,9.0,70,0.00,,---,0.00,VWS V14.01,2013-03-25 09:44:00,
2013-03-25 05:49:00,36.1,26.9,29.83,East,91,1.0,9.0,69,0.00,,---,0.00,VWS V14.01,2013-03-25 09:49:00,
2013-03-25 05:54:00,36.1,27.3,29.83,ENE,76,2.0,9.0,70,0.00,,---,0.00,VWS V14.01,2013-03-25 09:54:00,
2013-03-25 05:59:00,36.1,27.6,29.83,East,92,3.0,9.0,71,0.00,,---,0.00,VWS V14.01,2013-03-25 09:59:00,
2013-03-25 06:04:00,36.1,28.0,29.83,North,360,1.0,9.0,72,0.00,,---,0.00,VWS V14.01,2013-03-25 10:04:00,
2013-03-25 06:09:00,36.0,27.2,29.83,ENE,75,1.0,7.0,70,0.00,,---,0.00,VWS V14.01,2013-03-25 10:09:00,
2013-03-25 06:14:00,36.1,27.6,29.83,East,83,1.0,7.0,71,0.00,,---,0.00,VWS V14.01,2013-03-25 10:14:00,
2013-03-25 06:19:00,36.0,27.5,29.83,NNE,22,1.0,7.0,71,0.00,,---,0.00,VWS V14.01,2013-03-25 10:19:00,
2013-03-25 06:24:00,36.0,27.2,29.83,ESE,103,6.0,7.0,70,0.00,,---,0.00,VWS V14.01,2013-03-25 10:24:00,
2013-03-25 06:29:00,36.0,27.2,29.84,ENE,61,0.0,7.0,70,0.00,,---,0.00,VWS V14.01,2013-03-25 10:29:00,
2013-03-25 06:34:00,36.0,27.2,29.84,ENE,74,1.0,7.0,70,0.00,,---,0.00,VWS V14.01,2013-03-25 10:34:00,
2013-03-25 06:39:00,36.0,27.5,29.85,NNE,19,3.0,7.0,71,0.00,,---,0.00,VWS V14.01,2013-03-25 10:39:00,
2013-03-25 06:44:00,35.8,27.7,29.84,East,90,2.0,7.0,72,0.00,,---,0.00,VWS V14.01,2013-03-25 10:44:00,
2013-03-25 06:49:00,35.7,27.6,29.85,ESE,103,2.0,7.0,72,0.00,,---,0.00,VWS V14.01,2013-03-25 10:49:00,
2013-03-25 06:54:00,35.5,27.7,29.85,ENE,57,2.0,7.0,73,0.00,,---,0.00,VWS V14.01,2013-03-25 10:54:00,
2013-03-25 06:59:00,35.4,27.6,29.85,ENE,58,2.0,9.0,73,0.00,,---,0.00,VWS V14.01,2013-03-25 10:59:00,
2013-03-25 07:04:00,35.3,27.5,29.85,SE,132,3.0,9.0,73,0.00,,---,0.00,VWS V14.01,2013-03-25 11:04:00,
2013-03-25 07:09:00,35.3,27.2,29.85,North,10,3.0,7.0,72,0.00,,---,0.00,VWS V14.01,2013-03-25 11:09:00,
2013-03-25 07:14:00,35.3,27.2,29.86,East,95,2.0,7.0,72,0.00,,---,0.00,VWS V14.01,2013-03-25 11:14:00,
2013-03-25 07:19:00,35.2,27.1,29.86,ESE,108,3.0,7.0,72,0.00,,---,0.00,VWS V14.01,2013-03-25 11:19:00,
2013-03-25 07:24:00,35.2,26.4,29.86,ENE,59,1.0,9.0,70,0.00,,---,0.00,VWS V14.01,2013-03-25 11:24:00,
2013-03-25 07:29:00,35.2,26.8,29.86,ENE,60,2.0,9.0,71,0.00,,---,0.00,VWS V14.01,2013-03-25 11:29:00,
2013-03-25 07:34:00,35.2,26.8,29.86,East,92,2.0,9.0,71,0.00,,---,0.00,VWS V14.01,2013-03-25 11:34:00,
2013-03-25 07:39:00,35.2,26.4,29.86,ENE,67,0.0,7.0,70,0.00,,---,0.00,VWS V14.01,2013-03-25 11:39:00,
2013-03-25 07:44:00,35.2,26.4,29.87,ENE,60,2.0,12.0,70,0.00,,---,0.00,VWS V14.01,2013-03-25 11:44:00,
2013-03-25 07:49:00,35.2,26.8,29.86,ENE,69,3.0,12.0,71,0.00,,---,0.00,VWS V14.01,2013-03-25 11:49:00,
2013-03-25 07:54:00,35.1,26.3,29.86,ENE,57,1.0,12.0,70,0.00,,---,0.00,VWS V14.01,2013-03-25 11:54:00,
2013-03-25 07:59:00,35.1,27.0,29.86,ENE,58,0.0,12.0,72,0.00,,---,0.00,VWS V14.01,2013-03-25 11:59:00,
2013-03-25 08:04:00,35.1,26.7,29.87,East,82,3.0,12.0,71,0.00,,---,0.00,VWS V14.01,2013-03-25 12:04:00,
2013-03-25 08:09:00,35.1,26.7,29.87,ENE,78,4.0,5.0,71,0.00,,---,0.00,VWS V14.01,2013-03-25 12:09:00,
2013-03-25 08:14:00,35.1,26.7,29.87,NE,53,4.0,10.0,71,0.00,,---,0.00,VWS V14.01,2013-03-25 12:14:00,
2013-03-25 08:19:00,35.2,26.8,29.88,ESE,114,3.0,10.0,71,0.00,,---,0.00,VWS V14.01,2013-03-25 12:19:00,
2013-03-25 08:24:00,35.2,26.8,29.87,ESE,119,3.0,10.0,71,0.00,,---,0.00,VWS V14.01,2013-03-25 12:24:00,
2013-03-25 08:29:00,35.2,26.4,29.88,ENE,64,3.0,10.0,70,0.00,,---,0.00,VWS V14.01,2013-03-25 12:29:00,
2013-03-25 08:34:00,35.2,27.1,29.88,ENE,76,2.0,10.0,72,0.00,,---,0.00,VWS V14.01,2013-03-25 12:34:00,
2013-03-25 08:39:00,35.2,26.8,29.88,NE,51,0.0,5.0,71,0.00,,---,0.00,VWS V14.01,2013-03-25 12:39:00,
2013-03-25 08:44:00,35.3,26.9,29.89,East,86,2.0,8.0,71,0.00,,---,0.00,VWS V14.01,2013-03-25 12:44:00,
2013-03-25 08:49:00,35.3,26.9,29.89,NE,54,1.0,8.0,71,0.00,,---,0.00,VWS V14.01,2013-03-25 12:49:00,
2013-03-25 08:54:00,35.4,27.0,29.89,East,80,2.0,8.0,71,0.00,,---,0.00,VWS V14.01,2013-03-25 12:54:00,
2013-03-25 08:59:00,35.5,27.0,29.89,East,84,2.0,8.0,71,0.00,,---,0.00,VWS V14.01,2013-03-25 12:59:00,
2013-03-25 09:04:00,35.5,27.4,29.89,NE,37,2.0,9.0,72,0.00,,---,0.00,VWS V14.01,2013-03-25 13:04:00,
2013-03-25 09:09:00,35.5,27.4,29.90,NE,50,5.0,9.0,72,0.00,,---,0.00,VWS V14.01,2013-03-25 13:09:00,
2013-03-25 09:14:00,35.4,27.6,29.90,NE,44,2.0,10.0,73,0.00,,---,0.00,VWS V14.01,2013-03-25 13:14:00,
2013-03-25 09:19:00,35.3,27.5,29.90,NE,51,3.0,10.0,73,0.00,,---,0.00,VWS V14.01,2013-03-25 13:19:00,
2013-03-25 09:24:00,35.3,28.2,29.91,ENE,72,6.0,10.0,75,0.00,,---,0.00,VWS V14.01,2013-03-25 13:24:00,
2013-03-25 09:29:00,35.2,28.1,29.91,NE,51,2.0,11.0,75,0.00,,---,0.00,VWS V14.01,2013-03-25 13:29:00,
2013-03-25 09:34:00,35.2,28.1,29.91,East,84,3.0,11.0,75,0.00,,---,0.00,VWS V14.01,2013-03-25 13:34:00,
2013-03-25 09:39:00,35.3,28.5,29.91,East,99,3.0,5.0,76,0.00,,---,0.00,VWS V14.01,2013-03-25 13:39:00,
2013-03-25 09:44:00,35.5,28.0,29.91,ENE,64,1.0,9.0,74,0.00,,---,0.00,VWS V14.01,2013-03-25 13:44:00,
2013-03-25 09:49:00,35.7,28.2,29.92,ESE,104,1.0,9.0,74,0.00,,---,0.00,VWS V14.01,2013-03-25 13:49:00,
2013-03-25 09:54:00,35.8,28.3,29.92,ESE,109,1.0,9.0,74,0.00,,---,0.00,VWS V14.01,2013-03-25 13:54:00,
2013-03-25 09:59:00,36.0,27.9,29.92,East,95,7.0,11.0,72,0.00,,---,0.00,VWS V14.01,2013-03-25 13:59:00,
2013-03-25 10:04:00,36.2,28.7,29.92,ENE,67,3.0,11.0,74,0.00,,---,0.00,VWS V14.01,2013-03-25 14:04:00,
2013-03-25 10:09:00,36.3,28.5,29.93,ESE,111,1.0,6.0,73,0.00,,---,0.00,VWS V14.01,2013-03-25 14:09:00,
2013-03-25 10:14:00,36.4,28.2,29.93,NE,53,2.0,6.0,72,0.00,,---,0.00,VWS V14.01,2013-03-25 14:14:00,
2013-03-25 10:19:00,36.4,28.2,29.93,ENE,73,2.0,8.0,72,0.00,,---,0.00,VWS V14.01,2013-03-25 14:19:00,
2013-03-25 10:24:00,36.6,28.8,29.93,East,80,6.0,10.0,73,0.00,,---,0.00,VWS V14.01,2013-03-25 14:24:00,
2013-03-25 10:29:00,36.7,28.9,29.93,NE,44,4.0,10.0,73,0.00,,---,0.00,VWS V14.01,2013-03-25 14:29:00,
2013-03-25 10:34:00,36.7,28.2,29.93,ESE,103,2.0,10.0,71,0.00,,---,0.00,VWS V14.01,2013-03-25 14:34:00,
2013-03-25 10:39:00,36.8,28.6,29.94,North,10,2.0,6.0,72,0.00,,---,0.00,VWS V14.01,2013-03-25 14:39:00,
2013-03-25 10:44:00,36.9,28.4,29.94,NNE,25,1.0,6.0,71,0.00,,---,0.00,VWS V14.01,2013-03-25 14:44:00,
2013-03-25 10:49:00,37.0,28.8,29.94,NW,309,1.0,7.0,72,0.00,,---,0.00,VWS V14.01,2013-03-25 14:49:00,
2013-03-25 10:54:00,37.4,28.5,29.94,ESE,115,6.0,7.0,70,0.00,,---,0.00,VWS V14.01,2013-03-25 14:54:00,
2013-03-25 10:59:00,37.8,29.3,29.95,ENE,63,0.0,7.0,71,0.00,,---,0.00,VWS V14.01,2013-03-25 14:59:00,
2013-03-25 11:04:00,38.1,28.8,29.95,NE,42,1.0,7.0,69,0.00,,---,0.00,VWS V14.01,2013-03-25 15:04:00,
2013-03-25 11:09:00,38.3,29.0,29.95,ENE,62,4.0,5.0,69,0.00,,---,0.00,VWS V14.01,2013-03-25 15:09:00,
2013-03-25 11:14:00,38.1,28.1,29.95,ENE,76,1.0,12.0,67,0.00,,---,0.00,VWS V14.01,2013-03-25 15:14:00,
2013-03-25 11:19:00,37.9,28.3,29.96,ESE,102,2.0,12.0,68,0.00,,---,0.00,VWS V14.01,2013-03-25 15:19:00,
2013-03-25 11:24:00,37.8,28.6,29.95,ENE,58,4.0,12.0,69,0.00,,---,0.00,VWS V14.01,2013-03-25 15:24:00,
2013-03-25 11:29:00,38.2,28.9,29.96,North,360,4.0,12.0,69,0.00,,---,0.00,VWS V14.01,2013-03-25 15:29:00,
2013-03-25 11:34:00,38.1,28.1,29.96,East,101,3.0,12.0,67,0.00,,---,0.00,VWS V14.01,2013-03-25 15:34:00,
2013-03-25 11:39:00,38.1,27.8,29.96,East,79,3.0,9.0,66,0.00,,---,0.00,VWS V14.01,2013-03-25 15:39:00,
2013-03-25 11:44:00,38.2,28.6,29.97,ENE,59,3.0,9.0,68,0.00,,---,0.00,VWS V14.01,2013-03-25 15:44:00,
2013-03-25 11:49:00,38.0,26.9,29.97,ENE,63,6.0,17.0,64,0.00,,---,0.00,VWS V14.01,2013-03-25 15:49:00,
2013-03-25 11:54:00,38.0,27.7,29.97,ENE,67,4.0,17.0,66,0.00,,---,0.00,VWS V14.01,2013-03-25 15:54:00,
2013-03-25 11:59:00,38.0,26.9,29.97,East,84,2.0,17.0,64,0.00,,---,0.00,VWS V14.01,2013-03-25 15:59:00,
2013-03-25 12:04:00,38.0,27.7,29.97,ENE,67,4.0,17.0,66,0.00,,---,0.00,VWS V14.01,2013-03-25 16:04:00,
2013-03-25 12:09:00,38.0,27.3,29.98,East,90,2.0,10.0,65,0.00,,---,0.00,VWS V14.01,2013-03-25 16:09:00,
2013-03-25 12:14:00,38.2,27.5,29.98,SE,124,6.0,10.0,65,0.00,,---,0.00,VWS V14.01,2013-03-25 16:14:00,
2013-03-25 12:19:00,38.3,27.6,29.98,East,93,4.0,10.0,65,0.00,,---,0.00,VWS V14.01,2013-03-25 16:19:00,
2013-03-25 12:24:00,38.3,26.8,29.98,East,80,3.0,10.0,63,0.00,,---,0.00,VWS V14.01,2013-03-25 16:24:00,
2013-03-25 12:29:00,38.3,27.6,29.98,NNE,17,2.0,10.0,65,0.00,,---,0.00,VWS V14.01,2013-03-25 16:29:00,
2013-03-25 12:34:00,38.5,27.8,29.99,ESE,113,4.0,10.0,65,0.00,,---,0.00,VWS V14.01,2013-03-25 16:34:00,
2013-03-25 12:39:00,38.7,28.3,29.99,South,180,2.0,5.0,66,0.00,,---,0.00,VWS V14.01,2013-03-25 16:39:00,
2013-03-25 12:44:00,38.8,28.8,29.98,ESE,109,10.0,10.0,67,0.00,,---,0.00,VWS V14.01,2013-03-25 16:44:00,
2013-03-25 12:49:00,38.6,27.1,29.99,NE,44,3.0,10.0,63,0.00,,---,0.00,VWS V14.01,2013-03-25 16:49:00,
2013-03-25 12:54:00,38.0,26.9,29.99,NE,55,2.0,10.0,64,0.00,,---,0.00,VWS V14.01,2013-03-25 16:54:00,
2013-03-25 12:59:00,37.7,27.0,30.00,East,92,1.0,10.0,65,0.00,,---,0.00,VWS V14.01,2013-03-25 16:59:00,
2013-03-25 13:04:00,37.6,27.3,30.00,NE,56,3.0,10.0,66,0.00,,---,0.00,VWS V14.01,2013-03-25 17:04:00,
2013-03-25 13:09:00,37.7,27.4,30.00,East,79,2.0,4.0,66,0.00,,---,0.00,VWS V14.01,2013-03-25 17:09:00,
2013-03-25 13:14:00,37.7,27.8,30.00,NNE,32,1.0,4.0,67,0.00,,---,0.00,VWS V14.01,2013-03-25 17:14:00,
2013-03-25 13:19:00,37.7,26.6,30.00,East,88,3.0,6.0,64,0.00,,---,0.00,VWS V14.01,2013-03-25 17:19:00,
2013-03-25 13:24:00,37.6,27.3,30.00,ESE,103,1.0,10.0,66,0.00,,---,0.00,VWS V14.01,2013-03-25 17:24:00,
2013-03-25 13:29:00,37.6,27.3,30.00,East,99,2.0,10.0,66,0.00,,---,0.00,VWS V14.01,2013-03-25 17:29:00,
2013-03-25 13:34:00,37.7,27.0,30.00,ESE,102,1.0,10.0,65,0.00,,---,0.00,VWS V14.01,2013-03-25 17:34:00,
2013-03-25 13:39:00,37.7,27.8,30.00,North,349,1.0,4.0,67,0.00,,---,0.00,VWS V14.01,2013-03-25 17:39:00,
2013-03-25 13:44:00,37.6,27.3,30.00,ENE,69,2.0,5.0,66,0.00,,---,0.00,VWS V14.01,2013-03-25 17:44:00,
2013-03-25 13:49:00,37.5,27.2,30.00,East,95,1.0,7.0,66,0.00,,---,0.00,VWS V14.01,2013-03-25 17:49:00,
2013-03-25 13:54:00,37.4,26.7,30.00,NE,52,0.0,7.0,65,0.00,,---,0.00,VWS V14.01,2013-03-25 17:54:00,
2013-03-25 13:59:00,37.3,27.0,30.00,East,84,4.0,7.0,66,0.00,,---,0.00,VWS V14.01,2013-03-25 17:59:00,
2013-03-25 14:04:00,37.2,26.9,30.00,ESE,104,1.0,9.0,66,0.00,,---,0.00,VWS V14.01,2013-03-25 18:04:00,
2013-03-25 14:09:00,37.2,27.6,30.01,East,92,3.0,5.0,68,0.00,,---,0.00,VWS V14.01,2013-03-25 18:09:00,
2013-03-25 14:14:00,37.3,27.0,30.00,East,81,3.0,7.0,66,0.00,,---,0.00,VWS V14.01,2013-03-25 18:14:00,
2013-03-25 14:19:00,37.4,27.1,30.00,East,96,2.0,7.0,66,0.00,,---,0.00,VWS V14.01,2013-03-25 18:19:00,
2013-03-25 14:24:00,37.5,27.2,30.00,East,84,4.0,9.0,66,0.00,,---,0.00,VWS V14.01,2013-03-25 18:24:00,
2013-03-25 14:29:00,37.4,27.5,30.00,NNE,26,6.0,9.0,67,0.00,,---,0.00,VWS V14.01,2013-03-25 18:29:00,
2013-03-25 14:34:00,37.5,26.8,30.00,SE,134,4.0,9.0,65,0.00,,---,0.00,VWS V14.01,2013-03-25 18:34:00,
2013-03-25 14:39:00,37.5,27.5,30.00,NE,52,3.0,7.0,67,0.00,,---,0.00,VWS V14.01,2013-03-25 18:39:00,
2013-03-25 14:44:00,37.3,27.0,30.00,East,98,6.0,10.0,66,0.00,,---,0.00,VWS V14.01,2013-03-25 18:44:00,
2013-03-25 14:49:00,37.3,27.7,30.01,SE,130,1.0,10.0,68,0.00,,---,0.00,VWS V14.01,2013-03-25 18:49:00,
2013-03-25 14:54:00,37.3,26.6,30.00,East,79,4.0,10.0,65,0.00,,---,0.00,VWS V14.01,2013-03-25 18:54:00,
2013-03-25 14:59:00,37.3,27.7,30.01,ENE,75,2.0,10.0,68,0.00,,---,0.00,VWS V14.01,2013-03-25 18:59:00,
2013-03-25 15:04:00,37.4,27.1,30.01,ENE,63,4.0,11.0,66,0.00,,---,0.00,VWS V14.01,2013-03-25 19:04:00,
2013-03-25 15:09:00,37.7,27.4,30.01,ENE,70,1.0,6.0,66,0.00,,---,0.00,VWS V14.01,2013-03-25 19:09:00,
2013-03-25 15:14:00,37.9,27.9,30.01,ENE,78,5.0,7.0,67,0.00,,---,0.00,VWS V14.01,2013-03-25 19:14:00,
2013-03-25 15:19:00,38.0,27.7,30.01,SE,124,5.0,7.0,66,0.00,,---,0.00,VWS V14.01,2013-03-25 19:19:00,
2013-03-25 15:24:00,38.1,27.0,30.01,ENE,61,6.0,8.0,64,0.00,,---,0.00,VWS V14.01,2013-03-25 19:24:00,
2013-03-25 15:29:00,38.0,26.9,30.01,NE,50,4.0,9.0,64,0.00,,---,0.00,VWS V14.01,2013-03-25 19:29:00,
2013-03-25 15:34:00,37.7,26.3,30.01,ENE,75,5.0,11.0,63,0.00,,---,0.00,VWS V14.01,2013-03-25 19:34:00,
2013-03-25 15:39:00,37.6,26.9,30.01,NE,45,2.0,5.0,65,0.00,,---,0.00,VWS V14.01,2013-03-25 19:39:00,
2013-03-25 15:44:00,38.1,27.0,30.01,ESE,120,1.0,9.0,64,0.00,,---,0.00,VWS V14.01,2013-03-25 19:44:00,
2013-03-25 15:49:00,38.6,27.9,30.01,WSW,257,3.0,9.0,65,0.00,,---,0.00,VWS V14.01,2013-03-25 19:49:00,
2013-03-25 15:54:00,38.7,26.8,30.01,East,81,3.0,9.0,62,0.00,,---,0.00,VWS V14.01,2013-03-25 19:54:00,
2013-03-25 15:59:00,38.8,27.7,30.01,East,101,3.0,9.0,64,0.00,,---,0.00,VWS V14.01,2013-03-25 19:59:00,
2013-03-25 16:04:00,38.9,27.8,30.02,ENE,65,5.0,9.0,64,0.00,,---,0.00,VWS V14.01,2013-03-25 20:04:00,
2013-03-25 16:09:00,38.7,26.8,30.02,SSE,165,0.0,6.0,62,0.00,,---,0.00,VWS V14.01,2013-03-25 20:09:00,
2013-03-25 16:14:00,38.5,27.0,30.02,East,96,4.0,6.0,63,0.00,,---,0.00,VWS V14.01,2013-03-25 20:14:00,
2013-03-25 16:19:00,38.3,26.8,30.03,NE,53,3.0,10.0,63,0.00,,---,0.00,VWS V14.01,2013-03-25 20:19:00,
2013-03-25 16:24:00,38.1,27.0,30.03,ENE,77,3.0,10.0,64,0.00,,---,0.00,VWS V14.01,2013-03-25 20:24:00,
2013-03-25 16:29:00,38.1,27.4,30.03,ENE,78,2.0,10.0,65,0.00,,---,0.00,VWS V14.01,2013-03-25 20:29:00,
2013-03-25 16:34:00,38.1,27.4,30.03,NE,45,7.0,10.0,65,0.00,,---,0.00,VWS V14.01,2013-03-25 20:34:00,
2013-03-25 16:39:00,37.9,27.2,30.03,East,80,2.0,4.0,65,0.00,,---,0.00,VWS V14.01,2013-03-25 20:39:00,
2013-03-25 16:44:00,38.0,26.9,30.03,East,99,2.0,6.0,64,0.00,,---,0.00,VWS V14.01,2013-03-25 20:44:00,
2013-03-25 16:49:00,37.8,26.7,30.04,ENE,74,3.0,9.0,64,0.00,,---,0.00,VWS V14.01,2013-03-25 20:49:00,
2013-03-25 16:54:00,37.7,27.0,30.04,ENE,76,2.0,9.0,65,0.00,,---,0.00,VWS V14.01,2013-03-25 20:54:00,
2013-03-25 16:59:00,37.7,26.6,30.04,SE,126,2.0,9.0,64,0.00,,---,0.00,VWS V14.01,2013-03-25 20:59:00,
2013-03-25 17:04:00,37.7,27.0,30.04,ENE,78,2.0,9.0,65,0.00,,---,0.00,VWS V14.01,2013-03-25 21:04:00,
2013-03-25 17:09:00,37.6,26.9,30.04,NE,55,1.0,5.0,65,0.00,,---,0.00,VWS V14.01,2013-03-25 21:09:00,
2013-03-25 17:14:00,37.6,26.9,30.05,NNE,28,3.0,6.0,65,0.00,,---,0.00,VWS V14.01,2013-03-25 21:14:00,
2013-03-25 17:19:00,37.5,26.8,30.05,ENE,72,3.0,6.0,65,0.00,,---,0.00,VWS V14.01,2013-03-25 21:19:00,
2013-03-25 17:24:00,37.4,26.7,30.05,SE,126,2.0,12.0,65,0.00,,---,0.00,VWS V14.01,2013-03-25 21:24:00,
2013-03-25 17:29:00,37.2,26.9,30.06,NE,51,3.0,12.0,66,0.00,,---,0.00,VWS V14.01,2013-03-25 21:29:00,
2013-03-25 17:34:00,37.2,27.3,30.06,NNE,33,0.0,12.0,67,0.00,,---,0.00,VWS V14.01,2013-03-25 21:34:00,
2013-03-25 17:39:00,37.1,26.8,30.06,ESE,121,5.0,6.0,66,0.00,,---,0.00,VWS V14.01,2013-03-25 21:39:00,
2013-03-25 17:44:00,37.0,26.7,30.06,ENE,64,1.0,6.0,66,0.00,,---,0.00,VWS V14.01,2013-03-25 21:44:00,
2013-03-25 17:49:00,37.0,27.1,30.06,East,98,10.0,10.0,67,0.00,,---,0.00,VWS V14.01,2013-03-25 21:49:00,
2013-03-25 17:54:00,37.1,27.5,30.07,South,182,1.0,10.0,68,0.00,,---,0.00,VWS V14.01,2013-03-25 21:54:00,
2013-03-25 17:59:00,37.2,27.6,30.07,ESE,106,3.0,10.0,68,0.00,,---,0.00,VWS V14.01,2013-03-25 21:59:00,
2013-03-25 18:04:00,37.2,27.3,30.07,ENE,57,3.0,10.0,67,0.00,,---,0.00,VWS V14.01,2013-03-25 22:04:00,
2013-03-25 18:09:00,37.2,27.3,30.07,ENE,71,3.0,5.0,67,0.00,,---,0.00,VWS V14.01,2013-03-25 22:09:00,
2013-03-25 18:14:00,37.1,26.8,30.07,ENE,72,2.0,5.0,66,0.00,,---,0.00,VWS V14.01,2013-03-25 22:14:00,
2013-03-25 18:19:00,37.0,27.4,30.08,NNW,344,0.0,5.0,68,0.00,,---,0.00,VWS V14.01,2013-03-25 22:19:00,
2013-03-25 18:24:00,37.0,27.4,30.08,East,79,4.0,5.0,68,0.00,,---,0.00,VWS V14.01,2013-03-25 22:24:00,
2013-03-25 18:29:00,37.0,27.8,30.08,NE,46,1.0,5.0,69,0.00,,---,0.00,VWS V14.01,2013-03-25 22:29:00,
2013-03-25 18:34:00,37.0,27.4,30.08,NE,51,1.0,5.0,68,0.00,,---,0.00,VWS V14.01,2013-03-25 22:34:00,
2013-03-25 18:39:00,36.9,27.0,30.08,ENE,63,3.0,3.0,67,0.00,,---,0.00,VWS V14.01,2013-03-25 22:39:00,
2013-03-25 18:44:00,36.8,26.9,30.09,NE,38,1.0,5.0,67,0.00,,---,0.00,VWS V14.01,2013-03-25 22:44:00,
2013-03-25 18:49:00,36.8,27.2,30.09,East,90,1.0,5.0,68,0.00,,---,0.00,VWS V14.01,2013-03-25 22:49:00,
2013-03-25 18:54:00,36.7,27.1,30.09,ENE,64,2.0,5.0,68,0.00,,---,0.00,VWS V14.01,2013-03-25 22:54:00,
2013-03-25 18:58:00,36.7,27.1,30.09,East,92,0.0,5.0,68,0.00,,---,0.00,VWS V14.01,2013-03-25 22:58:00,
2013-03-25 19:03:00,36.6,27.0,30.09,ENE,72,3.0,5.0,68,0.00,,---,0.00,VWS V14.01,2013-03-25 23:03:00,
2013-03-25 19:08:00,36.4,26.5,30.10,ENE,67,4.0,8.0,67,0.00,,---,0.00,VWS V14.01,2013-03-25 23:08:00,
2013-03-25 19:13:00,36.2,27.0,30.10,East,98,1.0,8.0,69,0.00,,---,0.00,VWS V14.01,2013-03-25 23:13:00,
2013-03-25 19:18:00,36.1,27.3,30.11,NNE,30,0.0,8.0,70,0.00,,---,0.00,VWS V14.01,2013-03-25 23:18:00,
2013-03-25 19:23:00,36.1,27.3,30.11,ENE,73,2.0,8.0,70,0.00,,---,0.00,VWS V14.01,2013-03-25 23:23:00,
2013-03-25 19:28:00,36.0,27.2,30.11,East,80,2.0,8.0,70,0.00,,---,0.00,VWS V14.01,2013-03-25 23:28:00,
2013-03-25 19:33:00,36.0,27.2,30.11,East,84,2.0,8.0,70,0.00,,---,0.00,VWS V14.01,2013-03-25 23:33:00,
2013-03-25 19:38:00,35.8,27.3,30.11,NE,44,2.0,4.0,71,0.00,,---,0.00,VWS V14.01,2013-03-25 23:38:00,
2013-03-25 19:44:00,35.7,27.2,30.12,NE,52,1.0,5.0,71,0.00,,---,0.00,VWS V14.01,2013-03-25 23:44:00,
2013-03-25 19:49:00,35.6,27.5,30.12,East,96,1.0,7.0,72,0.00,,---,0.00,VWS V14.01,2013-03-25 23:49:00,
2013-03-25 19:53:00,35.5,27.4,30.12,ENE,66,1.0,7.0,72,0.00,,---,0.00,VWS V14.01,2013-03-25 23:53:00,
2013-03-25 19:58:00,35.4,27.3,30.12,East,84,2.0,7.0,72,0.00,,---,0.00,VWS V14.01,2013-03-25 23:58:00,
2013-03-25 20:03:00,35.3,26.9,30.12,East,96,2.0,7.0,71,0.00,,---,0.00,VWS V14.01,2013-03-26 00:03:00,
2013-03-25 20:08:00,35.2,27.4,30.12,East,100,3.0,3.0,73,0.00,,---,0.00,VWS V14.01,2013-03-26 00:08:00,
2013-03-25 20:13:00,35.1,26.7,30.12,East,81,1.0,4.0,71,0.00,,---,0.00,VWS V14.01,2013-03-26 00:13:00,
2013-03-25 20:18:00,35.1,26.7,30.12,ENE,61,2.0,7.0,71,0.00,,---,0.00,VWS V14.01,2013-03-26 00:18:00,
2013-03-25 20:23:00,35.0,26.9,30.13,ENE,75,7.0,7.0,72,0.00,,---,0.00,VWS V14.01,2013-03-26 00:23:00,
2013-03-25 20:28:00,34.9,26.5,30.13,East,98,1.0,7.0,71,0.00,,---,0.00,VWS V14.01,2013-03-26 00:28:00,
2013-03-25 20:33:00,34.8,26.7,30.13,ENE,61,2.0,7.0,72,0.00,,---,0.00,VWS V14.01,2013-03-26 00:33:00,
2013-03-25 20:38:00,34.8,26.7,30.13,ENE,69,1.0,3.0,72,0.00,,---,0.00,VWS V14.01,2013-03-26 00:38:00,
2013-03-25 20:43:00,34.8,26.7,30.13,NE,55,1.0,3.0,72,0.00,,---,0.00,VWS V14.01,2013-03-26 00:43:00,
2013-03-25 20:48:00,34.7,26.6,30.14,East,82,2.0,3.0,72,0.00,,---,0.00,VWS V14.01,2013-03-26 00:48:00,
2013-03-25 20:53:00,34.7,25.9,30.14,ENE,75,3.0,6.0,70,0.00,,---,0.00,VWS V14.01,2013-03-26 00:53:00,
2013-03-25 20:58:00,34.8,26.4,30.14,ENE,58,0.0,6.0,71,0.00,,---,0.00,VWS V14.01,2013-03-26 00:58:00,
2013-03-25 21:03:00,34.8,26.7,30.14,East,96,1.0,6.0,72,0.00,,---,0.00,VWS V14.01,2013-03-26 01:03:00,
2013-03-25 21:08:00,34.8,26.7,30.14,East,98,2.0,2.0,72,0.00,,---,0.00,VWS V14.01,2013-03-26 01:08:00,
2013-03-25 21:13:00,34.8,26.4,30.14,ENE,57,1.0,4.0,71,0.00,,---,0.00,VWS V14.01,2013-03-26 01:13:00,
2013-03-25 21:18:00,34.8,26.7,30.15,NE,46,2.0,4.0,72,0.00,,---,0.00,VWS V14.01,2013-03-26 01:18:00,
2013-03-25 21:23:00,34.8,26.7,30.15,North,9,1.0,4.0,72,0.00,,---,0.00,VWS V14.01,2013-03-26 01:23:00,
2013-03-25 21:28:00,34.7,26.3,30.15,NE,42,2.0,5.0,71,0.00,,---,0.00,VWS V14.01,2013-03-26 01:28:00,
2013-03-25 21:33:00,34.5,26.4,30.15,East,86,4.0,5.0,72,0.00,,---,0.00,VWS V14.01,2013-03-26 01:33:00,
2013-03-25 21:38:00,34.4,26.3,30.15,NE,49,1.0,3.0,72,0.00,,---,0.00,VWS V14.01,2013-03-26 01:38:00,
2013-03-25 21:43:00,34.4,26.3,30.15,ENE,64,2.0,3.0,72,0.00,,---,0.00,VWS V14.01,2013-03-26 01:43:00,
2013-03-25 21:48:00,34.4,26.7,30.15,ESE,108,1.0,4.0,73,0.00,,---,0.00,VWS V14.01,2013-03-26 01:48:00,
2013-03-25 21:53:00,34.4,26.7,30.15,East,82,1.0,4.0,73,0.00,,---,0.00,VWS V14.01,2013-03-26 01:53:00,
2013-03-25 21:58:00,34.4,26.3,30.15,East,82,1.0,4.0,72,0.00,,---,0.00,VWS V14.01,2013-03-26 01:58:00,
2013-03-25 22:03:00,34.4,26.7,30.15,ESE,106,2.0,4.0,73,0.00,,---,0.00,VWS V14.01,2013-03-26 02:03:00,
2013-03-25 22:08:00,34.4,26.3,30.15,NE,56,2.0,4.0,72,0.00,,---,0.00,VWS V14.01,2013-03-26 02:08:00,
2013-03-25 22:13:00,34.5,26.8,30.15,ENE,68,0.0,4.0,73,0.00,,---,0.00,VWS V14.01,2013-03-26 02:13:00,
2013-03-25 22:18:00,34.5,26.8,30.15,East,97,1.0,4.0,73,0.00,,---,0.00,VWS V14.01,2013-03-26 02:18:00,
2013-03-25 22:23:00,34.4,26.7,30.15,NE,49,1.0,4.0,73,0.00,,---,0.00,VWS V14.01,2013-03-26 02:23:00,
2013-03-25 22:28:00,34.4,27.0,30.15,East,82,1.0,4.0,74,0.00,,---,0.00,VWS V14.01,2013-03-26 02:28:00,
2013-03-25 22:33:00,34.3,26.9,30.16,East,81,0.0,4.0,74,0.00,,---,0.00,VWS V14.01,2013-03-26 02:33:00,
2013-03-25 22:38:00,34.1,27.0,30.16,WNW,284,2.0,3.0,75,0.00,,---,0.00,VWS V14.01,2013-03-26 02:38:00,
2013-03-25 22:43:00,33.9,27.1,30.16,North,5,0.0,4.0,76,0.00,,---,0.00,VWS V14.01,2013-03-26 02:43:00,
2013-03-25 22:48:00,33.9,27.1,30.17,ENE,70,0.0,4.0,76,0.00,,---,0.00,VWS V14.01,2013-03-26 02:48:00,
2013-03-25 22:53:00,34.0,27.2,30.17,ENE,70,0.0,4.0,76,0.00,,---,0.00,VWS V14.01,2013-03-26 02:53:00,
2013-03-25 22:58:00,34.1,27.7,30.17,East,94,1.0,5.0,77,0.00,,---,0.00,VWS V14.01,2013-03-26 02:58:00,
2013-03-25 23:03:00,34.1,27.7,30.17,East,94,1.0,5.0,77,0.00,,---,0.00,VWS V14.01,2013-03-26 03:03:00,
2013-03-25 23:08:00,34.1,27.7,30.17,North,350,1.0,3.0,77,0.00,,---,0.00,VWS V14.01,2013-03-26 03:08:00,
2013-03-25 23:13:00,34.0,27.6,30.17,East,89,2.0,4.0,77,0.00,,---,0.00,VWS V14.01,2013-03-26 03:13:00,
2013-03-25 23:18:00,33.9,27.5,30.17,East,88,1.0,4.0,77,0.00,,---,0.00,VWS V14.01,2013-03-26 03:18:00,
2013-03-25 23:23:00,33.8,27.7,30.17,East,89,1.0,4.0,78,0.00,,---,0.00,VWS V14.01,2013-03-26 03:23:00,
2013-03-25 23:28:00,33.8,27.7,30.17,ENE,63,1.0,4.0,78,0.00,,---,0.00,VWS V14.01,2013-03-26 03:28:00,
2013-03-25 23:33:00,33.8,28.0,30.17,ENE,63,1.0,4.0,79,0.00,,---,0.00,VWS V14.01,2013-03-26 03:33:00,
2013-03-25 23:38:00,33.7,27.6,30.17,ENE,60,1.0,1.0,78,0.00,,---,0.00,VWS V14.01,2013-03-26 03:38:00,
2013-03-25 23:43:00,33.7,27.9,30.17,NE,34,0.0,3.0,79,0.00,,---,0.00,VWS V14.01,2013-03-26 03:43:00,
2013-03-25 23:48:00,33.8,27.7,30.17,East,94,1.0,5.0,78,0.00,,---,0.00,VWS V14.01,2013-03-26 03:48:00,
2013-03-25 23:53:00,33.8,28.0,30.17,East,82,1.0,5.0,79,0.00,,---,0.00,VWS V14.01,2013-03-26 03:53:00,
2013-03-25 23:58:00,33.8,28.0,30.17,East,79,1.0,5.0,79,0.00,,---,0.00,VWS V14.01,2013-03-26 03:58:00,